Terminal Aerodrome Forecast
Issued by NWS

Home | Current Version | Previous Version | Text Only | Print | Product List | Glossary Off
Versions: 1 2 3 4 5 6 7 8 9 10 11 12 13 14 15 16

585
FTUS43 KABR 080057 AAA
TAFMBG
TAF AMD
KMBG 080057Z 0801/0824 33025G34KT P6SM OVC060
     FM080400 33023G28KT P6SM SCT050
     FM081600 33020G30KT P6SM BKN250=

USA.gov is the U.S. government's official web portal to all federal, state and local government web resources and services.